Time;durP1;ratioP1;P1;durP2;ratioP2;P2;SDS_P1;SDS_P2;PMS_P1;PMS_P2;Temp;Humidity;BMP_temperature;BMP_pressure;BME280_temperature;BME280_humidity;BME280_pressure;Samples;Min_cycle;Max_cycle;Signal;HPM_P1;HPM_P2
2023/04/09 00:01:50;;;;;;;1.48;1.33;;;;;;;;;;6255693;23;20019;-71
2023/04/09 00:04:16;;;;;;;1.80;1.50;;;19.20;82.30;;;;;;6255772;23;20405;-72
2023/04/09 00:06:42;;;;;;;1.23;1.13;;;;;;;;;;6255182;23;20030;-71
2023/04/09 00:09:07;;;;;;;1.50;1.40;;;19.00;82.10;;;;;;6255766;23;20428;-71
2023/04/09 00:11:33;;;;;;;1.33;1.23;;;;;;;;;;6255805;23;20000;-71
2023/04/09 00:13:59;;;;;;;1.40;1.30;;;18.80;82.40;;;;;;6245491;23;20032;-72
2023/04/09 00:16:25;;;;;;;1.65;1.38;;;18.90;74.00;;;;;;6245862;23;20003;-71
2023/04/09 00:18:51;;;;;;;1.60;1.50;;;19.10;69.10;;;;;;6245362;23;20489;-72
2023/04/09 00:21:17;;;;;;;1.60;1.50;;;18.60;82.20;;;;;;6245433;23;19992;-72
2023/04/09 00:23:43;;;;;;;1.20;1.10;;;18.80;82.20;;;;;;6245644;23;19997;-71
2023/04/09 00:26:09;;;;;;;1.35;1.25;;;19.00;79.40;;;;;;6218729;23;20054;-71
2023/04/09 00:28:35;;;;;;;1.25;1.08;;;18.90;81.90;;;;;;6245319;23;20000;-72
2023/04/09 00:31:02;;;;;;;1.70;1.60;;;;;;;;;;6245831;23;20050;-72
2023/04/09 00:33:28;;;;;;;1.40;1.30;;;;;;;;;;6245590;23;20023;-71
2023/04/09 00:35:54;;;;;;;2.20;1.50;;;18.70;73.90;;;;;;6245721;23;20004;-72
2023/04/09 00:38:20;;;;;;;1.92;1.77;;;18.60;82.40;;;;;;6255480;23;20000;-72
2023/04/09 00:40:50;;;;;;;1.65;1.55;;;19.00;82.50;;;;;;6255512;23;20354;-71
2023/04/09 00:43:16;;;;;;;1.58;1.48;;;19.10;82.60;;;;;;6255207;23;20070;-71
2023/04/09 00:45:42;;;;;;;1.75;1.65;;;;;;;;;;6245487;23;19993;-72
2023/04/09 00:48:08;;;;;;;1.48;1.15;;;18.80;82.40;;;;;;6255526;23;19997;-71
2023/04/09 00:50:34;;;;;;;2.60;1.52;;;18.70;82.50;;;;;;6255564;23;20000;-71
2023/04/09 00:53:00;;;;;;;2.20;2.00;;;18.80;82.60;;;;;;6255187;23;20074;-71
2023/04/09 00:55:26;;;;;;;1.92;1.83;;;18.80;82.40;;;;;;6255255;23;20343;-71
2023/04/09 00:57:51;;;;;;;2.45;1.52;;;18.90;82.70;;;;;;6255293;23;20027;-72
2023/04/09 01:00:17;;;;;;;1.52;1.42;;;18.50;72.50;;;;;;6255299;23;20000;-72
2023/04/09 01:02:43;;;;;;;1.50;1.40;;;18.40;55.30;;;;;;6255123;23;20298;-72
2023/04/09 01:05:10;;;;;;;2.63;2.17;;;18.80;52.50;;;;;;6255353;23;20042;-71
2023/04/09 01:07:53;;;;;;;2.85;1.75;;;19.00;83.10;;;;;;6255305;23;19997;-71
2023/04/09 01:10:39;;;;;;;1.40;1.30;;;18.70;82.70;;;;;;6255179;23;20439;-71
2023/04/09 01:13:18;;;;;;;1.88;1.33;;;18.70;57.00;;;;;;6255149;23;19996;-71
2023/04/09 01:16:00;;;;;;;1.90;1.80;;;18.80;51.90;;;;;;6254995;23;20324;-71
2023/04/09 01:18:48;;;;;;;1.65;1.40;;;18.80;82.60;;;;;;6217865;23;20527;-71
2023/04/09 01:21:22;;;;;;;1.73;1.63;;;18.80;69.60;;;;;;6245269;23;20000;-72
2023/04/09 01:24:25;;;;;;;2.00;1.88;;;19.00;83.20;;;;;;6244962;23;19992;-71
2023/04/09 01:27:01;;;;;;;1.73;1.63;;;18.70;70.40;;;;;;6245111;23;20319;-71
2023/04/09 01:29:31;;;;;;;1.70;1.60;;;18.80;83.00;;;;;;6245115;23;20004;-71
2023/04/09 01:32:00;;;;;;;1.60;1.50;;;18.40;83.00;;;;;;6245171;23;19996;-71
2023/04/09 01:34:28;;;;;;;1.63;1.52;;;18.70;57.50;;;;;;6245020;23;20015;-72
2023/04/09 01:36:58;;;;;;;1.65;1.52;;;18.40;83.00;;;;;;6244775;23;20042;-71
2023/04/09 01:39:25;;;;;;;1.70;1.60;;;18.80;83.20;;;;;;6244781;23;20412;-72
2023/04/09 01:41:52;;;;;;;1.52;1.35;;;18.80;83.20;;;;;;6245137;23;20031;-72
2023/04/09 01:44:19;;;;;;;1.27;1.17;;;18.90;83.60;;;;;;6244595;23;20012;-72
2023/04/09 01:46:47;;;;;;;1.50;1.40;;;18.70;53.00;;;;;;6244740;23;20019;-71
2023/04/09 01:49:14;;;;;;;1.67;1.58;;;16.40;52.00;;;;;;6244882;23;20054;-71
2023/04/09 01:51:40;;;;;;;1.10;1.05;;;18.90;83.80;;;;;;6244968;23;19992;-71
2023/04/09 01:54:07;;;;;;;1.63;1.52;;;18.70;83.60;;;;;;6218189;23;20015;-72
2023/04/09 01:56:41;;;;;;;1.38;1.25;;;18.80;74.90;;;;;;6244914;23;19993;-72
2023/04/09 01:59:07;;;;;;;1.50;1.33;;;18.70;74.70;;;;;;6244816;23;20011;-71
2023/04/09 02:01:48;;;;;;;1.38;1.27;;;18.90;72.80;;;;;;6244831;23;19998;-71
2023/04/09 02:04:27;;;;;;;1.52;1.42;;;18.70;83.60;;;;;;6244969;23;20571;-71
2023/04/09 02:07:02;;;;;;;1.80;1.70;;;18.70;60.90;;;;;;6244566;23;20003;-71
2023/04/09 02:09:30;;;;;;;1.48;1.38;;;18.70;53.10;;;;;;6244573;23;20000;-71
2023/04/09 02:12:03;;;;;;;1.50;1.40;;;18.90;78.60;;;;;;6244835;23;20000;-72
2023/04/09 02:14:31;;;;;;;2.10;1.92;;;18.70;55.40;;;;;;6244472;23;20463;-72
2023/04/09 02:16:59;;;;;;;2.33;1.90;;;18.80;83.60;;;;;;6244799;23;20323;-71
2023/04/09 02:19:38;;;;;;;1.98;1.30;;;18.80;84.00;;;;;;6244792;23;20011;-71
2023/04/09 02:22:04;;;;;;;2.92;1.30;;;18.60;83.80;;;;;;6244564;23;20020;-72
2023/04/09 02:24:30;;;;;;;1.90;1.67;;;18.30;83.60;;;;;;6244898;23;20019;-72
2023/04/09 02:26:57;;;;;;;1.70;1.60;;;;;;;;;;6245185;23;19996;-72
2023/04/09 02:29:23;;;;;;;1.75;1.65;;;;;;;;;;6244531;23;20004;-72
2023/04/09 02:31:51;;;;;;;2.92;1.70;;;18.90;75.90;;;;;;6246973;23;20007;-72
2023/04/09 02:34:19;;;;;;;2.38;2.17;;;18.30;83.60;;;;;;6246229;23;20491;-72
2023/04/09 02:36:45;;;;;;;1.92;1.77;;;;;;;;;;6246470;23;20000;-72
2023/04/09 02:39:11;;;;;;;1.67;1.58;;;;;;;;;;6256705;23;20000;-72
2023/04/09 02:41:37;;;;;;;2.20;2.00;;;;;;;;;;6256651;23;20443;-72
2023/04/09 02:44:03;;;;;;;1.80;1.70;;;;;;;;;;6256502;23;20032;-72
2023/04/09 02:46:29;;;;;;;2.85;2.10;;;;;;;;;;6246718;23;20000;-72
2023/04/09 02:48:55;;;;;;;1.85;1.75;;;;;;;;;;6246724;23;20027;-72
2023/04/09 02:51:21;;;;;;;2.28;2.05;;;;;;;;;;6256464;23;20074;-72
2023/04/09 02:53:47;;;;;;;1.88;1.77;;;;;;;;;;6256400;23;20036;-72
2023/04/09 02:56:13;;;;;;;1.83;1.70;;;18.60;53.00;;;;;;6256568;23;20358;-72
2023/04/09 02:58:39;;;;;;;1.92;1.83;;;;;;;;;;6256483;23;20053;-72
2023/04/09 03:01:05;;;;;;;2.78;2.28;;;18.80;84.10;;;;;;6256486;23;20000;-72
2023/04/09 03:03:30;;;;;;;1.92;1.77;;;18.80;84.10;;;;;;6256350;23;19997;-72
2023/04/09 03:05:56;;;;;;;2.20;2.00;;;18.50;83.80;;;;;;6256447;23;19996;-72
2023/04/09 03:08:22;;;;;;;2.38;2.17;;;18.70;84.10;;;;;;6256376;23;20462;-72
2023/04/09 03:10:48;;;;;;;2.00;1.90;;;18.60;84.00;;;;;;6256397;23;19992;-72
2023/04/09 03:13:13;;;;;;;1.67;1.58;;;18.80;84.20;;;;;;6256265;23;20000;-72
2023/04/09 03:15:40;;;;;;;2.30;2.10;;;;;;;;;;6256435;23;20004;-72
2023/04/09 03:18:05;;;;;;;2.03;1.75;;;18.60;84.10;;;;;;6256641;23;20000;-72
2023/04/09 03:20:31;;;;;;;1.90;1.80;;;18.70;71.20;;;;;;6256253;23;20447;-72
2023/04/09 03:22:57;;;;;;;2.03;1.92;;;;;;;;;;6256255;23;19992;-72
2023/04/09 03:25:23;;;;;;;1.90;1.70;;;;;;;;;;6256245;23;19992;-72
2023/04/09 03:27:49;;;;;;;1.90;1.80;;;;;;;;;;6246307;23;20039;-72
2023/04/09 03:30:15;;;;;;;1.80;1.70;;;;;;;;;;6256206;23;20000;-72
2023/04/09 03:32:41;;;;;;;1.70;1.58;;;;;;;;;;6256188;23;20015;-72
2023/04/09 03:35:07;;;;;;;1.75;1.63;;;;;;;;;;6256095;23;20011;-72
2023/04/09 03:37:33;;;;;;;2.35;2.15;;;;;;;;;;6256036;23;19992;-72
2023/04/09 03:39:59;;;;;;;2.00;1.88;;;;;;;;;;6256154;23;20374;-72
2023/04/09 03:42:25;;;;;;;1.83;1.73;;;;;;;;;;6255778;23;20436;-72
2023/04/09 03:44:53;;;;;;;2.03;1.92;;;18.60;53.70;;;;;;6256041;23;20071;-72
2023/04/09 03:47:19;;;;;;;1.55;1.45;;;;;;;;;;6256156;23;19996;-72
2023/04/09 03:49:45;;;;;;;2.15;2.00;;;;;;;;;;6246138;23;20309;-72
2023/04/09 03:52:11;;;;;;;2.30;2.10;;;;;;;;;;6256057;23;20010;-72
2023/04/09 03:54:37;;;;;;;2.05;1.80;;;;;;;;;;6255766;23;20018;-72
2023/04/09 03:57:03;;;;;;;1.73;1.63;;;;;;;;;;6256043;23;19996;-72
2023/04/09 03:59:29;;;;;;;2.20;2.00;;;;;;;;;;6246008;23;20323;-72
2023/04/09 04:01:55;;;;;;;1.88;1.77;;;;;;;;;;6255814;23;19996;-72
2023/04/09 04:04:21;;;;;;;1.80;1.70;;;;;;;;;;6255897;23;19996;-72
2023/04/09 04:06:47;;;;;;;1.90;1.80;;;;;;;;;;6255848;23;19998;-72
2023/04/09 04:09:13;;;;;;;2.03;1.92;;;;;;;;;;6255817;23;20324;-72
2023/04/09 04:11:39;;;;;;;2.10;1.90;;;;;;;;;;6255881;23;19996;-72
2023/04/09 04:14:05;;;;;;;1.85;1.75;;;;;;;;;;6255617;23;20011;-72
2023/04/09 04:16:31;;;;;;;1.92;1.80;;;;;;;;;;6255677;23;20011;-72
2023/04/09 04:18:57;;;;;;;1.75;1.65;;;;;;;;;;6229181;23;20007;-72
2023/04/09 04:21:23;;;;;;;1.77;1.67;;;;;;;;;;6255722;23;20063;-72
2023/04/09 04:23:49;;;;;;;1.77;1.67;;;;;;;;;;6255610;23;20042;-72
2023/04/09 04:26:15;;;;;;;2.20;1.90;;;;;;;;;;6255652;23;20281;-72
2023/04/09 04:28:41;;;;;;;2.25;2.05;;;;;;;;;;6255631;23;20007;-72
2023/04/09 04:31:10;;;;;;;1.95;1.85;;;18.50;52.90;;;;;;6245802;23;20341;-72
2023/04/09 04:33:37;;;;;;;2.40;2.20;;;18.60;84.60;;;;;;6255481;23;20015;-72
2023/04/09 04:36:06;;;;;;;2.30;2.10;;;18.50;54.00;;;;;;6255562;23;19998;-72
2023/04/09 04:38:33;;;;;;;2.15;1.98;;;18.40;76.90;;;;;;6255396;23;20011;-72
2023/04/09 04:40:59;;;;;;;2.30;2.10;;;18.70;66.60;;;;;;6255470;23;20028;-72
2023/04/09 04:43:25;;;;;;;2.58;1.83;;;;;;;;;;6255276;23;20016;-72
2023/04/09 04:45:51;;;;;;;1.90;1.77;;;;;;;;;;6255459;23;19999;-72
2023/04/09 04:48:17;;;;;;;2.20;2.00;;;;;;;;;;6255484;23;20000;-72
2023/04/09 04:50:44;;;;;;;2.08;1.88;;;18.70;81.80;;;;;;6245528;23;20259;-72
2023/04/09 04:53:10;;;;;;;2.03;1.92;;;18.60;85.10;;;;;;6244714;23;20008;-72
2023/04/09 04:55:40;;;;;;;2.33;2.13;;;18.60;74.50;;;;;;6245080;23;20490;-72
2023/04/09 04:58:06;;;;;;;2.20;2.03;;;18.40;84.90;;;;;;6245169;23;19996;-72
2023/04/09 05:00:32;;;;;;;2.38;2.17;;;18.40;84.30;;;;;;6255339;23;20004;-72
2023/04/09 05:02:57;;;;;;;2.58;2.38;;;18.70;79.20;;;;;;6255225;23;20028;-72
2023/04/09 05:05:23;;;;;;;2.13;1.95;;;;;;;;;;6255374;23;19992;-72
2023/04/09 05:07:49;;;;;;;2.65;2.28;;;18.70;84.80;;;;;;6255353;23;20003;-72
2023/04/09 05:10:15;;;;;;;1.88;1.77;;;18.50;84.60;;;;;;6255243;23;19996;-72
2023/04/09 05:12:40;;;;;;;2.53;2.33;;;18.60;78.00;;;;;;6245394;23;20000;-72
2023/04/09 05:15:06;;;;;;;2.20;2.00;;;18.70;84.70;;;;;;6255102;23;20420;-72
2023/04/09 05:17:32;;;;;;;2.17;2.08;;;18.30;84.80;;;;;;6255143;23;20443;-72
2023/04/09 05:19:58;;;;;;;2.92;2.63;;;18.50;84.80;;;;;;6245274;23;20000;-72
2023/04/09 05:22:23;;;;;;;2.35;2.15;;;18.20;84.00;;;;;;6255165;23;19992;-72
2023/04/09 05:24:50;;;;;;;2.15;2.00;;;;;;;;;;6255065;23;20025;-72
2023/04/09 05:27:18;;;;;;;2.10;1.88;;;;;;;;;;6255067;23;19997;-72
2023/04/09 05:29:44;;;;;;;2.15;2.00;;;18.70;61.90;;;;;;6245225;23;20004;-72
2023/04/09 05:32:09;;;;;;;2.17;2.00;;;18.50;84.50;;;;;;6245053;23;20320;-72
2023/04/09 05:34:35;;;;;;;2.28;2.17;;;18.60;78.60;;;;;;6254958;23;20083;-72
2023/04/09 05:37:01;;;;;;;2.72;2.30;;;;;;;;;;6244845;23;19996;-72
2023/04/09 05:39:27;;;;;;;2.03;1.90;;;;;;;;;;6254970;23;19996;-72
2023/04/09 05:41:53;;;;;;;2.08;1.88;;;;;;;;;;6255104;23;19996;-72
2023/04/09 05:44:19;;;;;;;1.83;1.73;;;;;;;;;;6254827;23;20042;-72
2023/04/09 05:46:45;;;;;;;2.25;2.05;;;;;;;;;;6255036;23;19993;-72
2023/04/09 05:49:11;;;;;;;2.40;2.20;;;;;;;;;;6254789;23;20007;-72
2023/04/09 05:51:37;;;;;;;2.33;2.13;;;;;;;;;;6254862;23;20323;-72
2023/04/09 05:54:03;;;;;;;2.47;2.28;;;;;;;;;;6254737;23;20011;-72
2023/04/09 05:56:29;;;;;;;2.40;2.20;;;18.60;80.40;;;;;;6245044;23;20392;-72
2023/04/09 05:58:55;;;;;;;2.38;2.17;;;18.30;77.90;;;;;;6244823;23;20029;-72
2023/04/09 06:01:21;;;;;;;2.00;1.90;;;18.40;73.20;;;;;;6244574;23;20015;-72
2023/04/09 06:03:47;;;;;;;2.50;2.30;;;;;;;;;;6244291;23;19996;-72
2023/04/09 06:06:14;;;;;;;2.13;1.92;;;18.60;84.90;;;;;;6244645;23;20066;-71
2023/04/09 06:08:40;;;;;;;2.25;2.05;;;18.60;85.20;;;;;;6244910;23;20297;-72
2023/04/09 06:11:12;;;;;;;2.20;2.00;;;18.60;85.40;;;;;;6244562;23;20382;-72
2023/04/09 06:13:39;;;;;;;2.45;2.25;;;18.30;85.10;;;;;;6244347;23;20004;-72
2023/04/09 06:16:08;;;;;;;2.40;2.10;;;18.40;53.40;;;;;;6244805;23;20050;-72
2023/04/09 06:18:35;;;;;;;2.70;2.50;;;18.60;85.40;;;;;;6244547;23;19996;-72
2023/04/09 06:21:05;;;;;;;2.40;2.13;;;18.40;85.10;;;;;;6244785;23;19997;-72
2023/04/09 06:23:33;;;;;;;3.13;2.83;;;18.40;74.90;;;;;;6244857;23;20066;-71
2023/04/09 06:26:00;;;;;;;2.80;2.60;;;18.40;75.20;;;;;;6244777;23;20357;-72
2023/04/09 06:28:27;;;;;;;2.42;2.22;;;18.60;85.30;;;;;;6244913;23;20319;-71
2023/04/09 06:30:54;;;;;;;2.83;2.45;;;18.20;85.10;;;;;;6244417;23;20003;-71
2023/04/09 06:33:21;;;;;;;2.95;2.65;;;18.40;85.40;;;;;;6217954;23;20134;-72
2023/04/09 06:35:48;;;;;;;2.72;2.40;;;;;;;;;;6244770;23;20000;-71
2023/04/09 06:38:16;;;;;;;2.95;2.65;;;18.40;78.80;;;;;;6244419;23;20030;-72
2023/04/09 06:40:42;;;;;;;2.90;2.60;;;;;;;;;;6244856;23;20309;-72
2023/04/09 06:43:08;;;;;;;2.83;2.53;;;18.70;54.70;;;;;;6254694;23;20087;-72
2023/04/09 06:45:35;;;;;;;2.80;2.50;;;18.40;85.30;;;;;;6254569;23;19996;-72
2023/04/09 06:48:01;;;;;;;2.85;2.55;;;;;;;;;;6254647;23;20007;-72
2023/04/09 06:50:26;;;;;;;3.28;2.97;;;18.40;85.30;;;;;;6254556;23;20045;-72
2023/04/09 06:52:53;;;;;;;3.05;2.75;;;18.50;85.30;;;;;;6254475;23;20000;-71
2023/04/09 06:55:18;;;;;;;3.03;2.63;;;18.50;85.60;;;;;;6254501;23;20079;-71
2023/04/09 06:57:44;;;;;;;3.20;2.85;;;18.40;85.30;;;;;;6254643;23;20089;-70
2023/04/09 07:00:10;;;;;;;2.63;2.42;;;18.60;85.30;;;;;;6254502;23;20007;-69
2023/04/09 07:02:36;;;;;;;3.20;2.90;;;;;;;;;;6244180;23;19997;-69
2023/04/09 07:05:03;;;;;;;3.00;2.70;;;18.40;85.20;;;;;;6254528;23;20000;-71
2023/04/09 07:07:29;;;;;;;3.30;2.78;;;18.30;85.20;;;;;;6244807;23;20000;-71
2023/04/09 07:09:55;;;;;;;3.33;2.90;;;;;;;;;;6254403;23;20000;-69
2023/04/09 07:12:30;;;;;;;3.85;3.22;;;18.40;53.50;;;;;;6254380;23;20012;-70
2023/04/09 07:15:04;;;;;;;4.20;3.45;;;18.40;71.00;;;;;;6254379;23;20015;-71
2023/04/09 07:17:30;;;;;;;7.22;3.58;;;18.50;85.40;;;;;;6256348;23;20449;-72
2023/04/09 07:19:56;;;;;;;6.10;4.25;;;18.40;85.40;;;;;;6256368;23;20007;-71
2023/04/09 07:22:22;;;;;;;5.03;3.47;;;18.30;85.00;;;;;;6246366;23;19996;-70
2023/04/09 07:24:52;;;;;;;5.93;3.80;;;18.40;71.10;;;;;;6256210;23;20057;-71
2023/04/09 07:27:20;;;;;;;6.20;3.88;;;18.10;85.50;;;;;;6256125;23;20083;-70
2023/04/09 07:29:45;;;;;;;5.40;4.00;;;18.50;75.10;;;;;;6256181;23;20004;-71
2023/04/09 07:32:11;;;;;;;4.65;4.13;;;;;;;;;;6256188;23;20455;-71
2023/04/09 07:34:37;;;;;;;4.85;4.28;;;18.50;64.80;;;;;;6255994;23;20384;-71
2023/04/09 07:37:03;;;;;;;7.90;4.10;;;;;;;;;;6256236;23;20024;-71
2023/04/09 07:39:29;;;;;;;4.70;3.75;;;;;;;;;;6246178;23;20019;-70
2023/04/09 07:41:56;;;;;;;5.90;4.07;;;;;;;;;;6246185;23;20046;-70
2023/04/09 07:44:22;;;;;;;5.22;4.40;;;18.60;85.70;;;;;;6255774;23;20083;-71
2023/04/09 07:46:47;;;;;;;6.40;4.47;;;18.00;85.30;;;;;;6256047;23;20027;-71
2023/04/09 07:49:13;;;;;;;6.70;4.30;;;18.60;66.60;;;;;;6255929;23;19999;-71
2023/04/09 07:51:39;;;;;;;4.25;3.85;;;;;;;;;;6256095;23;20003;-71
2023/04/09 07:54:05;;;;;;;5.90;4.72;;;18.70;69.80;;;;;;6246068;23;20166;-71
2023/04/09 07:56:31;;;;;;;6.18;4.60;;;;;;;;;;6255895;23;20000;-71
2023/04/09 07:58:57;;;;;;;6.50;4.30;;;;;;;;;;6255903;23;20071;-71
2023/04/09 08:01:24;;;;;;;7.05;5.35;;;18.50;85.70;;;;;;6245893;23;20390;-71
2023/04/09 08:03:50;;;;;;;6.78;4.95;;;;;;;;;;6255901;23;19996;-71
2023/04/09 08:06:16;;;;;;;5.30;4.55;;;18.40;85.60;;;;;;6255729;23;20023;-71
2023/04/09 08:08:42;;;;;;;9.23;6.18;;;18.50;79.60;;;;;;6255836;23;19996;-72
2023/04/09 08:11:08;;;;;;;6.35;5.43;;;18.50;86.00;;;;;;6255835;23;20002;-71
2023/04/09 08:13:34;;;;;;;6.70;5.50;;;;;;;;;;6255615;23;20006;-71
2023/04/09 08:16:01;;;;;;;5.93;5.03;;;18.60;86.10;;;;;;6255711;23;20062;-72
2023/04/09 08:18:27;;;;;;;11.32;5.47;;;18.50;86.10;;;;;;6255604;23;20031;-71
2023/04/09 08:20:52;;;;;;;7.60;5.90;;;18.60;86.40;;;;;;6245821;23;20324;-72
2023/04/09 08:23:18;;;;;;;6.68;5.47;;;18.60;86.10;;;;;;6255624;23;20090;-72
2023/04/09 08:25:43;;;;;;;8.25;5.93;;;18.40;85.60;;;;;;6255643;23;19996;-71
2023/04/09 08:28:09;;;;;;;8.73;6.50;;;;;;;;;;6255252;23;20004;-71
2023/04/09 08:30:35;;;;;;;15.82;10.73;;;;;;;;;;6255478;23;20505;-73
2023/04/09 08:33:01;;;;;;;17.90;12.60;;;18.40;83.20;;;;;;6245632;23;19996;-74
2023/04/09 08:35:29;;;;;;;15.45;11.23;;;18.40;54.90;;;;;;6245611;23;20008;-74
2023/04/09 08:37:55;;;;;;;19.42;13.38;;;;;;;;;;6255567;23;20003;-74
2023/04/09 08:40:21;;;;;;;18.55;12.20;;;18.00;54.80;;;;;;6255365;23;20035;-74
2023/04/09 08:42:52;;;;;;;18.30;12.70;;;18.40;54.90;;;;;;6245278;23;20481;-74
2023/04/09 08:45:17;;;;;;;15.55;11.02;;;18.40;66.20;;;;;;6255429;23;20000;-74
2023/04/09 08:47:45;;;;;;;14.88;11.32;;;18.20;73.40;;;;;;6255461;23;20304;-74
2023/04/09 08:50:11;;;;;;;13.57;9.90;;;;;;;;;;6255415;23;20003;-73
2023/04/09 08:52:37;;;;;;;14.55;10.88;;;20.00;58.30;;;;;;6255256;23;20331;-74
2023/04/09 08:55:03;;;;;;;16.02;10.80;;;18.40;54.30;;;;;;6254886;23;20008;-74
2023/04/09 08:57:29;;;;;;;16.40;11.20;;;;;;;;;;6255085;23;19993;-73
2023/04/09 08:59:57;;;;;;;15.27;11.35;;;18.70;72.90;;;;;;6255003;23;20692;-74
2023/04/09 09:02:23;;;;;;;14.48;10.65;;;;;;;;;;6245326;23;19996;-74
2023/04/09 09:04:49;;;;;;;13.98;10.85;;;18.50;54.60;;;;;;6261079;23;20027;-74
2023/04/09 09:07:16;;;;;;;13.65;9.85;;;16.90;54.70;;;;;;6245438;23;19999;-75
2023/04/09 09:09:56;;;;;;;13.82;10.43;;;18.40;53.80;;;;;;6255084;23;20009;-74
2023/04/09 09:12:30;;;;;;;12.55;9.93;;;18.60;86.10;;;;;;6255253;23;20510;-74
2023/04/09 09:14:56;;;;;;;14.52;10.77;;;;;;;;;;6254922;23;20015;-74
2023/04/09 09:17:22;;;;;;;13.90;10.38;;;18.50;72.10;;;;;;6255113;23;20419;-74
2023/04/09 09:19:47;;;;;;;12.93;10.30;;;18.70;83.50;;;;;;6255128;23;19996;-77
2023/04/09 09:22:13;;;;;;;15.00;10.27;;;18.50;66.50;;;;;;6254840;23;19997;-74
2023/04/09 09:24:50;;;;;;;13.30;10.30;;;18.60;53.90;;;;;;6254878;23;20007;-75
2023/04/09 09:27:38;;;;;;;12.98;10.10;;;18.70;55.40;;;;;;6255086;23;20004;-74
2023/04/09 09:30:05;;;;;;;13.02;9.77;;;18.40;65.70;;;;;;6244545;23;19992;-74
2023/04/09 09:32:33;;;;;;;13.07;9.65;;;18.60;55.20;;;;;;6244914;23;20015;-74
2023/04/09 09:35:06;;;;;;;11.65;9.23;;;18.60;53.80;;;;;;6254563;23;20008;-74
2023/04/09 09:37:33;;;;;;;12.48;9.52;;;18.20;85.70;;;;;;6245006;23;20309;-74
2023/04/09 09:39:59;;;;;;;13.70;10.68;;;18.20;86.00;;;;;;6254668;23;20331;-74
2023/04/09 09:42:28;;;;;;;11.40;9.07;;;18.50;68.10;;;;;;6244734;23;20007;-74
2023/04/09 09:44:54;;;;;;;13.35;9.90;;;18.30;73.60;;;;;;6254860;23;20067;-74
2023/04/09 09:47:21;;;;;;;12.35;9.63;;;18.40;80.60;;;;;;6244950;23;20409;-74
2023/04/09 09:49:49;;;;;;;11.13;9.25;;;18.60;54.90;;;;;;6244943;23;20313;-74
2023/04/09 09:52:23;;;;;;;12.75;8.65;;;18.70;55.30;;;;;;6244613;23;20071;-73
2023/04/09 09:54:55;;;;;;;11.25;8.07;;;18.70;77.00;;;;;;6244949;23;20071;-75
2023/04/09 09:57:40;;;;;;;12.88;9.50;;;18.90;69.60;;;;;;6242102;23;20000;-74
2023/04/09 10:00:07;;;;;;;13.07;8.88;;;18.80;86.30;;;;;;6244534;23;20376;-74
2023/04/09 10:02:52;;;;;;;10.57;8.65;;;18.70;55.20;;;;;;6244865;23;19999;-74
2023/04/09 10:05:23;;;;;;;13.48;10.23;;;18.80;86.30;;;;;;6244611;23;20423;-74
2023/04/09 10:07:50;;;;;;;15.95;10.00;;;18.60;84.20;;;;;;6244904;23;20003;-75
2023/04/09 10:10:16;;;;;;;16.25;9.38;;;18.90;86.30;;;;;;6244857;23;20063;-76
2023/04/09 10:12:44;;;;;;;11.43;8.85;;;19.00;85.90;;;;;;6244839;23;19992;-76
2023/04/09 10:15:10;;;;;;;10.68;8.75;;;;;;;;;;6244587;23;20036;-75
2023/04/09 10:17:37;;;;;;;12.75;9.38;;;19.00;85.80;;;;;;6244690;23;20023;-76
2023/04/09 10:20:03;;;;;;;13.32;8.60;;;;;;;;;;6254706;23;20466;-76
2023/04/09 10:22:31;;;;;;;11.05;8.57;;;19.00;55.00;;;;;;6244774;23;19996;-76
2023/04/09 10:24:58;;;;;;;12.10;8.40;;;19.20;85.70;;;;;;6244755;23;20327;-76
2023/04/09 10:27:27;;;;;;;13.82;10.02;;;18.70;59.30;;;;;;6254692;23;20000;-76
2023/04/09 10:29:53;;;;;;;16.50;12.07;;;;;;;;;;6244865;23;20328;-76
2023/04/09 10:32:22;;;;;;;12.65;9.82;;;19.20;54.70;;;;;;6244175;23;20126;-76
2023/04/09 10:34:49;;;;;;;15.75;9.52;;;19.30;85.40;;;;;;6244730;23;20016;-77
2023/04/09 10:37:20;;;;;;;13.40;8.60;;;19.60;63.00;;;;;;6244437;23;20170;-75
2023/04/09 10:39:48;;;;;;;12.38;8.93;;;19.50;85.10;;;;;;6244488;23;20023;-74
2023/04/09 10:42:26;;;;;;;12.80;9.40;;;19.50;67.40;;;;;;6244353;23;19996;-73
2023/04/09 10:45:21;;;;;;;13.75;10.05;;;19.40;85.10;;;;;;6244873;23;20000;-75
2023/04/09 10:47:50;;;;;;;9.80;8.63;;;19.60;84.90;;;;;;6212685;23;20007;-74
2023/04/09 10:50:16;;;;;;;9.93;8.80;;;;;;;;;;6244674;23;20026;-73
2023/04/09 10:52:43;;;;;;;14.50;8.40;;;19.70;84.70;;;;;;6246724;23;20074;-73
2023/04/09 10:55:28;;;;;;;10.25;8.13;;;19.80;53.60;;;;;;6246204;23;20009;-73
2023/04/09 10:57:54;;;;;;;10.13;7.88;;;20.20;84.50;;;;;;6246632;23;19996;-73
2023/04/09 11:00:20;;;;;;;10.40;8.30;;;20.10;84.20;;;;;;6246582;23;20023;-77
2023/04/09 11:03:20;;;;;;;12.20;8.77;;;20.00;52.20;;;;;;6246204;23;20020;-72
2023/04/09 11:05:51;;;;;;;10.73;8.77;;;20.30;83.80;;;;;;6238058;23;20065;-73
2023/04/09 11:08:17;;;;;;;10.13;7.50;;;20.50;84.20;;;;;;6246211;23;20435;-72
2023/04/09 11:10:45;;;;;;;10.00;8.23;;;20.30;83.90;;;;;;6256468;23;20118;-72
2023/04/09 11:13:12;;;;;;;9.10;7.75;;;20.50;84.30;;;;;;6256424;23;19992;-73
2023/04/09 11:15:38;;;;;;;10.23;8.18;;;20.30;80.30;;;;;;6246469;23;20008;-74
2023/04/09 11:18:08;;;;;;;8.70;7.72;;;;;;;;;;6256347;23;19996;-75
2023/04/09 11:20:34;;;;;;;;;;;20.40;52.20;;;;;;6256980;23;20035;-73
2023/04/09 11:23:00;;;;;;;8.98;7.18;;;20.40;83.90;;;;;;6246480;23;19900;-73
2023/04/09 11:25:29;;;;;;;8.85;7.80;;;20.70;84.00;;;;;;6246463;23;20118;-74
2023/04/09 11:27:55;;;;;;;8.95;6.63;;;;;;;;;;6246378;23;20071;-74
2023/04/09 11:30:22;;;;;;;10.02;7.97;;;20.60;81.50;;;;;;6246403;23;20001;-72
2023/04/09 11:32:49;;;;;;;12.50;9.05;;;20.60;83.20;;;;;;6246079;23;19996;-72
2023/04/09 11:35:16;;;;;;;8.68;6.47;;;21.20;83.90;;;;;;6256127;23;20057;-72
2023/04/09 11:37:43;;;;;;;7.63;6.25;;;20.90;74.40;;;;;;6256221;23;19992;-73
2023/04/09 11:40:17;;;;;;;10.18;7.15;;;20.90;52.10;;;;;;6256213;23;20053;-73
2023/04/09 11:42:43;;;;;;;9.07;7.18;;;21.00;84.10;;;;;;6255954;23;20016;-72
2023/04/09 11:45:10;;;;;;;9.57;6.50;;;20.60;57.90;;;;;;6246314;23;19996;-72
2023/04/09 11:47:39;;;;;;;8.15;6.07;;;21.00;84.70;;;;;;6219692;23;20000;-73
2023/04/09 11:50:06;;;;;;;6.78;6.07;;;20.60;54.30;;;;;;6246220;23;19992;-73
2023/04/09 11:52:34;;;;;;;7.43;6.13;;;20.90;85.00;;;;;;6255955;23;19996;-72
2023/04/09 11:55:02;;;;;;;8.95;6.80;;;20.70;54.60;;;;;;6245761;23;20035;-72
2023/04/09 11:57:41;;;;;;;7.97;7.18;;;20.80;85.50;;;;;;6246185;23;19993;-73
2023/04/09 12:00:13;;;;;;;7.35;6.47;;;20.40;75.40;;;;;;6246135;23;20323;-73
2023/04/09 12:02:47;;;;;;;6.82;5.80;;;20.60;53.90;;;;;;6245916;23;20011;-72
2023/04/09 12:05:28;;;;;;;7.20;6.35;;;20.60;63.00;;;;;;6245745;23;20000;-74
2023/04/09 12:08:12;;;;;;;7.65;6.32;;;20.40;66.80;;;;;;6219815;23;20004;-72
2023/04/09 12:10:38;;;;;;;7.35;6.20;;;;;;;;;;6255938;23;20038;-71
2023/04/09 12:13:12;;;;;;;6.75;5.82;;;20.90;59.40;;;;;;6255701;23;19996;-71
2023/04/09 12:15:42;;;;;;;7.13;5.72;;;20.70;85.70;;;;;;6218564;23;20535;-71
2023/04/09 12:18:11;;;;;;;7.75;6.25;;;21.00;76.70;;;;;;6255698;23;20079;-71
2023/04/09 12:20:39;;;;;;;9.60;6.10;;;20.70;55.10;;;;;;6255735;23;20024;-72
2023/04/09 12:23:06;;;;;;;7.25;6.50;;;20.80;54.70;;;;;;6255802;23;19996;-72
2023/04/09 12:25:35;;;;;;;7.25;6.53;;;20.60;85.00;;;;;;6255693;23;20428;-74
2023/04/09 12:28:02;;;;;;;8.17;6.03;;;20.70;63.80;;;;;;6245565;23;20008;-74
2023/04/09 12:30:28;;;;;;;9.95;7.63;;;;;;;;;;6255588;23;20239;-76
2023/04/09 12:32:55;;;;;;;8.30;6.22;;;20.80;84.80;;;;;;6245385;23;20519;-77
2023/04/09 12:35:21;;;;;;;10.88;7.90;;;21.10;85.00;;;;;;6245602;23;20036;-76
2023/04/09 12:37:47;;;;;;;8.57;6.75;;;;;;;;;;6255441;23;20087;-76
2023/04/09 12:40:13;;;;;;;8.88;6.40;;;;;;;;;;6255720;23;20031;-76
2023/04/09 12:42:43;;;;;;;11.38;6.50;;;21.00;53.90;;;;;;6255406;23;20008;-75
2023/04/09 12:45:11;;;;;;;9.30;7.28;;;21.30;53.80;;;;;;6245834;23;20418;-76
2023/04/09 12:47:38;;;;;;;8.23;6.97;;;;;;;;;;6245667;23;20008;-76
2023/04/09 12:50:06;;;;;;;10.43;7.78;;;21.40;53.50;;;;;;6245254;23;20477;-76
2023/04/09 12:52:33;;;;;;;9.00;8.07;;;21.40;83.80;;;;;;6245227;23;20502;-76
2023/04/09 12:55:00;;;;;;;12.95;9.52;;;21.80;61.20;;;;;;6245526;23;20011;-76
2023/04/09 12:57:26;;;;;;;13.95;12.45;;;21.70;74.40;;;;;;6255337;23;20007;-76
2023/04/09 12:59:53;;;;;;;13.93;12.82;;;22.40;52.60;;;;;;6245148;23;20000;-76
2023/04/09 13:02:20;;;;;;;15.60;14.13;;;22.40;59.80;;;;;;6245106;23;20011;-72
2023/04/09 13:04:47;;;;;;;18.05;16.48;;;22.00;82.30;;;;;;6245456;23;20010;-73
2023/04/09 13:07:14;;;;;;;21.20;19.50;;;22.10;82.30;;;;;;6245524;23;20038;-72
2023/04/09 13:09:41;;;;;;;24.15;22.17;;;22.20;57.20;;;;;;6245273;23;19996;-73
2023/04/09 13:12:07;;;;;;;27.45;25.25;;;;;;;;;;6245380;23;20432;-72
2023/04/09 13:14:33;;;;;;;31.48;28.95;;;22.80;65.20;;;;;;6245084;23;20091;-75
2023/04/09 13:16:59;;;;;;;30.23;27.83;;;22.80;72.70;;;;;;6245303;23;20000;-75